createdAt,value
2018-02-24T00:00:22.292Z,100765.05
2018-02-24T00:03:23.511Z,100772.83
2018-02-24T00:06:24.760Z,100772.31
2018-02-24T00:09:25.961Z,100771.23
2018-02-24T00:12:27.163Z,100768.61
2018-02-24T00:15:28.350Z,100766.59
2018-02-24T00:18:29.621Z,100761.92
2018-02-24T00:21:30.893Z,100755.34
2018-02-24T00:24:32.116Z,100751.13
2018-02-24T00:27:33.310Z,100744.27
2018-02-24T00:30:34.525Z,100751.48
2018-02-24T00:33:35.718Z,100752.48
2018-02-24T00:36:37.685Z,100746.91
2018-02-24T00:39:39.617Z,100748.29
2018-02-24T00:42:40.834Z,100739.27
2018-02-24T00:45:42.044Z,100744.64
2018-02-24T00:48:43.292Z,100748.87
2018-02-24T00:51:44.500Z,100745.95
2018-02-24T00:54:45.717Z,100752.56
2018-02-24T00:57:46.960Z,100760.48
2018-02-24T01:00:48.266Z,100766.33
2018-02-24T01:03:49.484Z,100770.25
2018-02-24T01:06:50.689Z,100766.78
2018-02-24T01:09:51.901Z,100769.08
2018-02-24T01:12:53.128Z,100760.66
2018-02-24T01:15:54.496Z,100752.22
2018-02-24T01:18:56.597Z,100755.36
2018-02-24T01:21:58.529Z,100756.02
2018-02-24T01:24:59.720Z,100753.18
2018-02-24T01:28:00.956Z,100763.53
2018-02-24T01:31:09.084Z,100761.56
2018-02-24T01:34:10.286Z,100761.88
2018-02-24T01:37:12.241Z,100764.11
2018-02-24T01:40:13.440Z,100761.48
2018-02-24T01:43:15.389Z,100747.79
2018-02-24T01:46:16.597Z,100745.73
2018-02-24T01:49:17.793Z,100738.19
2018-02-24T01:52:18.993Z,100748.48
2018-02-24T01:55:20.968Z,100749.97
2018-02-24T01:58:22.168Z,100756.50
2018-02-24T02:01:23.433Z,100761.32
2018-02-24T02:04:24.627Z,100751.92
2018-02-24T02:07:25.857Z,100751.59
2018-02-24T02:10:27.062Z,100760.70
2018-02-24T02:13:28.539Z,100765.30
2018-02-24T02:16:29.982Z,100765.28
2018-02-24T02:19:32.096Z,100766.21
2018-02-24T02:22:33.529Z,100775.28
2018-02-24T02:25:34.961Z,100770.14
2018-02-24T02:28:36.193Z,100759.24
2018-02-24T02:31:37.391Z,100767.00
2018-02-24T02:34:38.593Z,100748.02
2018-02-24T02:37:39.801Z,100766.61
2018-02-24T02:40:41.725Z,100764.70
2018-02-24T02:43:42.948Z,100767.85
2018-02-24T02:46:44.154Z,100772.17
2018-02-24T02:49:45.400Z,100767.22
2018-02-24T02:52:46.620Z,100768.58
2018-02-24T02:55:48.580Z,100770.92
2018-02-24T02:58:49.823Z,100772.45
2018-02-24T03:01:51.843Z,100775.53
2018-02-24T03:04:53.800Z,100778.23
2018-02-24T03:07:54.999Z,100770.46
2018-02-24T03:10:56.209Z,100777.48
2018-02-24T03:13:57.425Z,100787.25
2018-02-24T03:16:58.636Z,100794.04
2018-02-24T03:19:59.852Z,100779.87
2018-02-24T03:23:01.069Z,100790.55
2018-02-24T03:26:02.290Z,100792.30
2018-02-24T03:29:03.513Z,100793.68
2018-02-24T03:32:04.740Z,100795.67
2018-02-24T03:35:05.941Z,100791.75
2018-02-24T03:38:07.885Z,100796.72
2018-02-24T03:41:09.116Z,100791.55
2018-02-24T03:44:10.380Z,100802.20
2018-02-24T03:47:11.569Z,100801.66
2018-02-24T03:50:12.808Z,100808.02
2018-02-24T03:53:14.025Z,100810.13
2018-02-24T03:56:15.247Z,100812.50
2018-02-24T03:59:16.470Z,100814.38
2018-02-24T04:02:18.457Z,100827.33
2018-02-24T04:05:19.718Z,100824.45
2018-02-24T04:08:20.924Z,100824.27
2018-02-24T04:11:22.201Z,100828.20
2018-02-24T04:14:23.420Z,100830.30
2018-02-24T04:17:24.642Z,100834.77
2018-02-24T04:20:25.836Z,100837.36
2018-02-24T04:23:27.116Z,100832.98
2018-02-24T04:26:28.300Z,100836.29
2018-02-24T04:29:29.525Z,100833.73
2018-02-24T04:32:30.732Z,100837.39
2018-02-24T04:35:31.921Z,100836.56
2018-02-24T04:38:33.133Z,100846.94
2018-02-24T04:41:34.326Z,100828.00
2018-02-24T04:44:35.544Z,100839.96
2018-02-24T04:47:36.767Z,100854.12
2018-02-24T04:50:37.958Z,100854.44
2018-02-24T04:53:39.169Z,100866.70
2018-02-24T04:56:40.396Z,100867.98
2018-02-24T04:59:41.625Z,100866.83
2018-02-24T05:02:43.618Z,100865.88
2018-02-24T05:05:44.945Z,100875.92
2018-02-24T05:08:46.168Z,100873.50
2018-02-24T05:11:47.383Z,100865.28
2018-02-24T05:14:48.624Z,100869.53
2018-02-24T05:17:49.800Z,100864.51
2018-02-24T05:20:51.020Z,100874.41
2018-02-24T05:23:52.237Z,100870.19
2018-02-24T05:26:54.217Z,100874.47
2018-02-24T05:29:56.163Z,100875.39
2018-02-24T05:32:57.394Z,100877.28
2018-02-24T05:35:58.587Z,100872.20
2018-02-24T05:38:59.790Z,100886.08
2018-02-24T05:42:01.736Z,100882.98
2018-02-24T05:45:02.976Z,100884.46
2018-02-24T05:48:04.173Z,100885.44
2018-02-24T05:51:05.383Z,100888.92
2018-02-24T05:54:06.628Z,100895.16
2018-02-24T05:57:08.576Z,100898.84
2018-02-24T06:00:09.830Z,100905.79
2018-02-24T06:03:11.100Z,100909.05
2018-02-24T06:06:12.340Z,100898.47
2018-02-24T06:09:13.528Z,100909.11
2018-02-24T06:12:14.768Z,100899.41
2018-02-24T06:15:15.975Z,100911.55
2018-02-24T06:18:17.916Z,100919.25
2018-02-24T06:21:19.135Z,100915.83
2018-02-24T06:24:20.351Z,100907.27
2018-02-24T06:27:21.633Z,100916.14
2018-02-24T06:30:22.841Z,100928.09
2018-02-24T06:33:24.124Z,100930.66
2018-02-24T06:36:25.402Z,100935.10
2018-02-24T06:39:26.652Z,100939.16
2018-02-24T06:42:27.881Z,100929.00
2018-02-24T06:45:29.120Z,100946.58
2018-02-24T06:48:31.058Z,100940.91
2018-02-24T06:51:33.011Z,100943.09
2018-02-24T06:54:34.377Z,100946.73
2018-02-24T06:57:35.599Z,100946.16
2018-02-24T07:00:37.580Z,100949.27
2018-02-24T07:03:39.575Z,100952.22
2018-02-24T07:06:40.781Z,100959.89
2018-02-24T07:09:42.020Z,100960.30
2018-02-24T07:12:43.213Z,100963.22
2018-02-24T07:15:44.456Z,100966.23
2018-02-24T07:18:45.676Z,100959.16
2018-02-24T07:21:46.924Z,100953.47
2018-02-24T07:24:48.152Z,100960.46
2018-02-24T07:27:49.362Z,100963.90
2018-02-24T07:30:51.313Z,100950.93
2018-02-24T07:33:52.541Z,100959.52
2018-02-24T07:36:53.822Z,100960.97
2018-02-24T07:39:55.056Z,100965.19
2018-02-24T07:42:56.249Z,100972.99
2018-02-24T07:45:57.462Z,100974.72
2018-02-24T07:48:59.412Z,100976.23
2018-02-24T07:52:00.618Z,100976.32
2018-02-24T07:55:01.845Z,100976.02
2018-02-24T07:58:03.090Z,100973.98
2018-02-24T08:01:04.304Z,100964.78
2018-02-24T08:04:05.565Z,100967.59
2018-02-24T08:07:06.838Z,100975.78
2018-02-24T08:10:08.047Z,100982.27
2018-02-24T08:13:09.273Z,100979.81
2018-02-24T08:16:10.498Z,100984.09
2018-02-24T08:19:12.497Z,100985.41
2018-02-24T08:22:13.712Z,100981.70
2018-02-24T08:25:14.922Z,100987.44
2018-02-24T08:28:16.144Z,100984.28
2018-02-24T08:31:17.388Z,100986.86
2018-02-24T08:34:18.609Z,100988.30
2018-02-24T08:37:19.891Z,100985.69
2018-02-24T08:40:21.112Z,100971.34
2018-02-24T08:43:23.061Z,100984.89
2018-02-24T08:46:24.293Z,100986.06
2018-02-24T08:49:25.496Z,100991.59
2018-02-24T08:52:26.760Z,100989.37
2018-02-24T08:55:27.981Z,100996.76
2018-02-24T08:58:29.199Z,101000.51
2018-02-24T09:01:31.153Z,100999.75
2018-02-24T09:04:32.399Z,101006.19
2018-02-24T09:07:33.606Z,100996.18
2018-02-24T09:10:35.566Z,101000.84
2018-02-24T09:13:37.272Z,101004.28
2018-02-24T09:16:38.641Z,101007.15
2018-02-24T09:19:40.119Z,100999.98
2018-02-24T09:22:41.490Z,101010.88
2018-02-24T09:25:42.906Z,101011.61
2018-02-24T09:28:45.253Z,101018.50
2018-02-24T09:31:46.864Z,101004.33
2018-02-24T09:34:56.134Z,101006.92
2018-02-24T09:37:57.417Z,101004.31
2018-02-24T09:40:58.651Z,101016.55
2018-02-24T09:43:59.844Z,101002.98
2018-02-24T09:47:01.053Z,101012.92
2018-02-24T09:50:02.314Z,101012.11
2018-02-24T09:53:03.650Z,101011.49
2018-02-24T09:56:04.847Z,101016.48
2018-02-24T09:59:06.073Z,101008.62
2018-02-24T10:02:07.284Z,101008.51
2018-02-24T10:05:08.534Z,101023.60
2018-02-24T10:08:09.761Z,101029.35
2018-02-24T10:11:11.005Z,101025.22
2018-02-24T10:14:12.198Z,101027.16
2018-02-24T10:17:13.456Z,101028.21
2018-02-24T10:20:14.659Z,101023.42
2018-02-24T10:23:15.908Z,101029.57
2018-02-24T10:26:17.105Z,101031.53
2018-02-24T10:29:19.067Z,101035.45
2018-02-24T10:32:20.284Z,101033.14
2018-02-24T10:35:21.505Z,101036.48
2018-02-24T10:38:23.457Z,101042.86
2018-02-24T10:41:24.830Z,101032.84
2018-02-24T10:44:26.048Z,101034.83
2018-02-24T10:47:27.264Z,101044.61
2018-02-24T10:50:28.454Z,101014.88
2018-02-24T10:53:29.888Z,101052.14
2018-02-24T10:56:31.104Z,101050.42
2018-02-24T10:59:32.305Z,101050.33
2018-02-24T11:02:33.529Z,101054.47
2018-02-24T11:05:34.855Z,101048.06
2018-02-24T11:08:36.824Z,101029.38
2018-02-24T11:11:38.077Z,101023.23
2018-02-24T11:14:39.316Z,101030.57
2018-02-24T11:17:40.591Z,101028.15
2018-02-24T11:20:41.797Z,101023.95
2018-02-24T11:23:43.780Z,101016.20
2018-02-24T11:26:45.780Z,100997.66
2018-02-24T11:29:47.025Z,101020.28
2018-02-24T11:32:49.122Z,101008.65
2018-02-24T11:35:50.347Z,101016.46
2018-02-24T11:38:52.075Z,101018.25
2018-02-24T11:41:53.328Z,101015.27
2018-02-24T11:44:54.934Z,100996.57
2018-02-24T11:47:56.815Z,101003.39
2018-02-24T11:50:58.053Z,101007.03
2018-02-24T11:53:59.316Z,101005.52
2018-02-24T11:57:00.522Z,101010.64
2018-02-24T12:00:01.761Z,101011.31
2018-02-24T12:03:03.000Z,101020.09
2018-02-24T12:06:04.237Z,101017.91
2018-02-24T12:09:05.447Z,101025.34
2018-02-24T12:12:06.710Z,101001.66
2018-02-24T12:15:07.927Z,101016.43
2018-02-24T12:18:09.185Z,101016.49
2018-02-24T12:21:10.398Z,101006.94
2018-02-24T12:24:11.645Z,101006.20
2018-02-24T12:27:12.859Z,100994.95
2018-02-24T12:30:14.094Z,100996.54
2018-02-24T12:33:15.332Z,100984.55
2018-02-24T12:36:16.584Z,101002.67
2018-02-24T12:39:18.557Z,100987.86
2018-02-24T12:42:20.555Z,100990.54
2018-02-24T12:45:21.860Z,100992.11
2018-02-24T12:48:23.093Z,100995.34
2018-02-24T12:51:24.340Z,100989.80
2018-02-24T12:54:26.327Z,100991.91
2018-02-24T12:57:27.560Z,100993.30
2018-02-24T13:00:28.797Z,100997.73
2018-02-24T13:03:30.007Z,100994.36
2018-02-24T13:06:31.980Z,100997.89
2018-02-24T13:09:33.949Z,100990.30
2018-02-24T13:12:35.184Z,101003.05
2018-02-24T13:15:36.381Z,101002.47
2018-02-24T13:18:38.349Z,100992.61
2018-02-24T13:21:39.556Z,100993.07
2018-02-24T13:24:40.789Z,101004.47
2018-02-24T13:27:42.746Z,100997.61
2018-02-24T13:30:43.995Z,101000.88
2018-02-24T13:33:45.237Z,101006.87
2018-02-24T13:36:46.502Z,101005.46
2018-02-24T13:39:47.718Z,100996.56
2018-02-24T13:42:49.681Z,100992.77
2018-02-24T13:45:50.876Z,101002.96
2018-02-24T13:48:52.106Z,100996.98
2018-02-24T13:51:53.308Z,101008.21
2018-02-24T13:54:54.556Z,100993.00
2018-02-24T13:57:55.794Z,100997.48
2018-02-24T14:00:57.009Z,101001.75
2018-02-24T14:03:58.253Z,100999.03
2018-02-24T14:06:59.500Z,101007.81
2018-02-24T14:10:01.478Z,101001.18
2018-02-24T14:13:03.520Z,101001.20
2018-02-24T14:16:04.674Z,101008.78
2018-02-24T14:19:05.931Z,101006.34
2018-02-24T14:22:07.181Z,101010.75
2018-02-24T14:25:08.420Z,101015.34
2018-02-24T14:28:09.641Z,101020.23
2018-02-24T14:31:10.880Z,101012.26
2018-02-24T14:34:12.086Z,101011.22
2018-02-24T14:37:14.055Z,101019.63
2018-02-24T14:40:15.292Z,101003.41
2018-02-24T14:43:16.545Z,101011.67
2018-02-24T14:46:17.752Z,101008.62
2018-02-24T14:49:18.977Z,101004.27
2018-02-24T14:52:20.212Z,101009.48
2018-02-24T14:55:21.445Z,101010.89
2018-02-24T14:58:23.398Z,101008.69
2018-02-24T15:01:24.636Z,101013.21
2018-02-24T15:04:25.893Z,101011.91
2018-02-24T15:07:27.164Z,101001.59
2018-02-24T15:10:28.388Z,101016.55
2018-02-24T15:13:30.336Z,101009.34
2018-02-24T15:16:31.576Z,101008.56
2018-02-24T15:19:32.840Z,101005.81
2018-02-24T15:22:34.069Z,101006.23
2018-02-24T15:25:35.324Z,101008.94
2018-02-24T15:28:36.569Z,101014.21
2018-02-24T15:31:38.556Z,101021.80
2018-02-24T15:34:40.548Z,101022.41
2018-02-24T15:37:41.777Z,101015.30
2018-02-24T15:40:42.993Z,101007.70
2018-02-24T15:43:44.321Z,101008.16
2018-02-24T15:46:46.289Z,101009.86
2018-02-24T15:49:47.549Z,101003.84
2018-02-24T15:52:48.792Z,100999.14
2018-02-24T15:55:50.040Z,101010.28
2018-02-24T15:58:51.268Z,101007.66
2018-02-24T16:01:52.477Z,101008.64
2018-02-24T16:04:53.680Z,101009.60
2018-02-24T16:07:55.641Z,101012.86
2018-02-24T16:10:56.873Z,101006.88
2018-02-24T16:13:58.161Z,101010.00
2018-02-24T16:16:59.449Z,101010.08
2018-02-24T16:20:01.453Z,101018.25
2018-02-24T16:23:02.678Z,101022.21
2018-02-24T16:26:03.895Z,101012.81
2018-02-24T16:29:05.120Z,101030.55
2018-02-24T16:32:07.336Z,101024.11
2018-02-24T16:35:08.580Z,101033.02
2018-02-24T16:38:09.936Z,101028.47
2018-02-24T16:41:11.886Z,101034.35
2018-02-24T16:44:14.681Z,101040.70
2018-02-24T16:47:16.848Z,101046.28
2018-02-24T16:50:18.316Z,101044.83
2018-02-24T16:53:19.819Z,101051.66
2018-02-24T16:56:21.470Z,101048.41
2018-02-24T16:59:24.946Z,101049.72
2018-02-24T17:02:26.168Z,101048.96
2018-02-24T17:05:28.270Z,101045.23
2018-02-24T17:08:30.205Z,101047.48
2018-02-24T17:11:32.267Z,101047.13
2018-02-24T17:14:34.133Z,101041.36
2018-02-24T17:17:36.726Z,101052.78
2018-02-24T17:20:38.011Z,101046.63
2018-02-24T17:23:40.216Z,101062.62
2018-02-24T17:26:41.886Z,101057.55
2018-02-24T17:29:44.344Z,101054.18
2018-02-24T17:32:46.122Z,101063.71
2018-02-24T17:35:47.365Z,101066.28
2018-02-24T17:38:48.718Z,101073.41
2018-02-24T17:41:50.950Z,101070.14
2018-02-24T17:44:52.384Z,101073.54
2018-02-24T17:47:53.641Z,101067.23
2018-02-24T17:50:54.876Z,101077.88
2018-02-24T17:53:56.640Z,101078.41
2018-02-24T17:56:58.345Z,101085.48
2018-02-24T18:00:00.341Z,101075.23
2018-02-24T18:03:01.753Z,101078.38
2018-02-24T18:06:03.540Z,101083.12
2018-02-24T18:09:05.506Z,101080.38
2018-02-24T18:12:08.331Z,101077.47
2018-02-24T18:15:10.109Z,101076.78
2018-02-24T18:18:11.881Z,101080.92
2018-02-24T18:21:13.546Z,101082.98
2018-02-24T18:24:15.267Z,101081.37
2018-02-24T18:27:17.270Z,101088.27
2018-02-24T18:30:19.029Z,101082.50
2018-02-24T18:33:20.308Z,101087.03
2018-02-24T18:36:21.617Z,101088.67
2018-02-24T18:39:23.575Z,101095.56
2018-02-24T18:42:24.801Z,101101.91
2018-02-24T18:45:26.554Z,101096.94
2018-02-24T18:48:27.844Z,101103.34
2018-02-24T18:51:29.079Z,101111.60
2018-02-24T18:58:35.628Z,101113.28
2018-02-24T19:01:38.207Z,101124.02
2018-02-24T19:04:39.559Z,101129.03
2018-02-24T19:07:43.276Z,101119.22
2018-02-24T19:10:44.540Z,101129.59
2018-02-24T19:13:47.020Z,101129.88
2018-02-24T19:16:48.280Z,101135.47
2018-02-24T19:19:49.996Z,101138.98
2018-02-24T19:22:51.256Z,101130.80
2018-02-24T19:25:52.788Z,101133.94
2018-02-24T19:28:54.006Z,101127.73
2018-02-24T19:31:55.292Z,101138.95
2018-02-24T19:34:56.717Z,101151.50
2018-02-24T19:37:57.936Z,101142.17
2018-02-24T19:40:59.561Z,101132.11
2018-02-24T19:44:01.595Z,101132.45
2018-02-24T19:47:03.435Z,101134.36
2018-02-24T19:50:05.308Z,101130.64
2018-02-24T19:53:06.561Z,101147.03
2018-02-24T19:56:09.424Z,101143.41
2018-02-24T19:59:10.983Z,101145.82
2018-02-24T20:02:13.306Z,101145.30
2018-02-24T20:05:15.705Z,101148.98
2018-02-24T20:08:16.937Z,101153.33
2018-02-24T20:11:19.874Z,101142.66
2018-02-24T20:14:22.135Z,101147.09
2018-02-24T20:17:23.498Z,101162.22
2018-02-24T20:20:24.765Z,101162.19
2018-02-24T20:23:27.185Z,101161.05
2018-02-24T20:26:29.996Z,101161.15
2018-02-24T20:29:31.288Z,101162.53
2018-02-24T20:32:32.993Z,101163.98
2018-02-24T20:35:35.293Z,101171.52
2018-02-24T20:38:36.557Z,101164.75
2018-02-24T20:41:37.789Z,101164.45
2018-02-24T20:44:39.381Z,101165.22
2018-02-24T20:47:41.897Z,101154.88
2018-02-24T20:50:43.144Z,101168.55
2018-02-24T20:53:44.947Z,101159.75
2018-02-24T20:56:46.207Z,101167.51
2018-02-24T20:59:47.877Z,101174.62
2018-02-24T21:02:49.181Z,101175.00
2018-02-24T21:05:51.328Z,101180.78
2018-02-24T21:08:53.260Z,101176.06
2018-02-24T21:11:55.788Z,101170.50
2018-02-24T21:14:57.486Z,101177.84
2018-02-24T21:17:58.731Z,101182.41
2018-02-24T21:21:00.200Z,101180.43
2018-02-24T21:24:01.447Z,101183.78
2018-02-24T21:27:02.667Z,101193.81
2018-02-24T21:30:04.738Z,101191.31
2018-02-24T21:33:07.274Z,101195.09
2018-02-24T21:36:08.665Z,101193.14
2018-02-24T21:39:10.394Z,101194.19
2018-02-24T21:42:11.907Z,101192.16
2018-02-24T21:45:13.897Z,101198.02
2018-02-24T21:48:15.375Z,101184.61
2018-02-24T21:51:16.602Z,101191.32
2018-02-24T21:54:17.836Z,101198.18
2018-02-24T21:57:19.073Z,101198.41
2018-02-24T22:00:20.301Z,101201.22
2018-02-24T22:03:21.545Z,101197.00
2018-02-24T22:06:23.494Z,101207.64
2018-02-24T22:09:24.734Z,101200.06
2018-02-24T22:12:25.969Z,101211.94
2018-02-24T22:15:27.183Z,101207.50
2018-02-24T22:18:28.428Z,101212.05
2018-02-24T22:21:30.480Z,101216.80
2018-02-24T22:24:31.752Z,101221.22
2018-02-24T22:27:32.992Z,101217.38
2018-02-24T22:30:34.294Z,101213.11
2018-02-24T22:33:35.599Z,101217.99
2018-02-24T22:36:36.872Z,101220.48
2018-02-24T22:39:38.827Z,101225.12
2018-02-24T22:42:40.184Z,101218.84
2018-02-24T22:45:41.498Z,101220.52
2018-02-24T22:48:49.190Z,101221.62
2018-02-24T22:51:50.683Z,101224.28
2018-02-24T22:54:53.095Z,101218.41
2018-02-24T22:57:54.489Z,101216.40
2018-02-24T23:00:56.521Z,101200.27
2018-02-24T23:03:57.892Z,101219.78
2018-02-24T23:06:59.154Z,101218.66
2018-02-24T23:10:00.481Z,101218.56
2018-02-24T23:13:02.479Z,101216.20
2018-02-24T23:16:03.835Z,101222.86
2018-02-24T23:19:06.008Z,101221.47
2018-02-24T23:22:07.979Z,101222.95
2018-02-24T23:25:09.298Z,101226.30
2018-02-24T23:28:10.663Z,101208.67
2018-02-24T23:31:12.051Z,101213.39
2018-02-24T23:34:14.024Z,101215.84
2018-02-24T23:37:15.289Z,101221.79
2018-02-24T23:40:16.687Z,101217.00
2018-02-24T23:43:18.767Z,101209.59
2018-02-24T23:46:19.975Z,101210.81
2018-02-24T23:49:21.185Z,101202.75
2018-02-24T23:52:22.377Z,101202.10
2018-02-24T23:55:24.405Z,101201.27
2018-02-24T23:58:25.601Z,101211.36
